createdAt,value
2019-01-14T00:00:06.398Z,1.30
2019-01-14T00:02:34.915Z,1.47
2019-01-14T00:05:05.296Z,1.70
2019-01-14T00:07:33.750Z,1.57
2019-01-14T00:10:02.251Z,1.53
2019-01-14T00:12:30.717Z,1.50
2019-01-14T00:14:59.158Z,1.50
2019-01-14T00:17:27.617Z,1.10
2019-01-14T00:19:56.062Z,1.77
2019-01-14T00:22:24.536Z,1.60
2019-01-14T00:24:52.990Z,1.67
2019-01-14T00:27:21.570Z,1.50
2019-01-14T00:29:50.024Z,1.40
2019-01-14T00:32:18.485Z,1.50
2019-01-14T00:34:46.926Z,1.70
2019-01-14T00:37:15.404Z,1.40
2019-01-14T00:39:43.857Z,1.87
2019-01-14T00:42:12.367Z,1.53
2019-01-14T00:44:40.823Z,1.53
2019-01-14T00:47:09.274Z,1.50
2019-01-14T00:49:37.723Z,1.60
2019-01-14T00:52:06.227Z,1.70
2019-01-14T00:54:34.671Z,1.30
2019-01-14T00:57:03.140Z,1.50
2019-01-14T00:59:31.678Z,1.50
2019-01-14T01:02:00.143Z,1.90
2019-01-14T01:04:28.629Z,2.00
2019-01-14T01:06:57.078Z,1.70
2019-01-14T01:09:25.532Z,1.67
2019-01-14T01:11:53.996Z,1.80
2019-01-14T01:14:22.433Z,1.90
2019-01-14T01:16:50.972Z,1.60
2019-01-14T01:19:19.438Z,1.77
2019-01-14T01:21:47.906Z,1.77
2019-01-14T01:24:16.485Z,1.57
2019-01-14T01:26:44.927Z,2.07
2019-01-14T01:29:13.384Z,1.87
2019-01-14T01:31:41.809Z,1.60
2019-01-14T01:34:10.280Z,1.90
2019-01-14T01:36:38.742Z,1.53
2019-01-14T01:39:07.906Z,1.63
2019-01-14T01:41:36.372Z,2.10
2019-01-14T01:44:04.966Z,2.27
2019-01-14T01:46:33.493Z,1.40
2019-01-14T01:49:01.956Z,1.70
2019-01-14T01:51:30.405Z,1.70
2019-01-14T01:53:58.863Z,1.87
2019-01-14T01:56:27.385Z,1.73
2019-01-14T01:58:56.176Z,1.87
2019-01-14T02:01:24.647Z,2.03
2019-01-14T02:03:53.294Z,2.00
2019-01-14T02:06:21.796Z,1.80
2019-01-14T02:08:50.244Z,2.00
2019-01-14T02:11:18.731Z,1.83
2019-01-14T02:13:48.168Z,2.17
2019-01-14T02:16:16.649Z,2.10
2019-01-14T02:18:45.086Z,1.60
2019-01-14T02:21:13.533Z,1.60
2019-01-14T02:23:42.071Z,1.83
2019-01-14T02:26:10.503Z,1.93
2019-01-14T02:28:38.960Z,1.50
2019-01-14T02:31:07.482Z,2.03
2019-01-14T02:33:35.943Z,1.87
2019-01-14T02:36:05.117Z,1.57
2019-01-14T02:38:33.638Z,1.87
2019-01-14T02:41:02.180Z,1.87
2019-01-14T02:43:30.635Z,1.50
2019-01-14T02:45:59.108Z,1.97
2019-01-14T02:48:27.542Z,2.00
2019-01-14T02:50:56.358Z,1.80
2019-01-14T02:53:24.816Z,1.90
2019-01-14T02:55:53.284Z,1.53
2019-01-14T02:58:21.726Z,1.97
2019-01-14T03:00:50.185Z,1.87
2019-01-14T03:03:18.645Z,2.00
2019-01-14T03:05:47.160Z,1.80
2019-01-14T03:08:16.113Z,1.60
2019-01-14T03:10:44.567Z,1.87
2019-01-14T03:13:13.023Z,1.40
2019-01-14T03:15:41.478Z,1.63
2019-01-14T03:18:09.923Z,1.83
2019-01-14T03:20:38.393Z,2.23
2019-01-14T03:23:06.868Z,1.37
2019-01-14T03:25:35.334Z,1.60
2019-01-14T03:28:03.925Z,1.73
2019-01-14T03:30:32.469Z,1.50
2019-01-14T03:33:00.930Z,1.37
2019-01-14T03:35:29.445Z,1.60
2019-01-14T03:37:57.907Z,1.53
2019-01-14T03:40:26.682Z,1.93
2019-01-14T03:42:55.576Z,1.47
2019-01-14T03:45:24.021Z,1.40
2019-01-14T03:47:52.483Z,1.43
2019-01-14T03:50:21.758Z,1.20
2019-01-14T03:52:50.403Z,1.40
2019-01-14T03:55:18.942Z,1.30
2019-01-14T03:57:47.930Z,1.20
2019-01-14T04:00:17.401Z,1.30
2019-01-14T04:02:45.941Z,1.33
2019-01-14T04:05:14.597Z,1.10
2019-01-14T04:07:43.345Z,1.20
2019-01-14T04:10:14.648Z,1.47
2019-01-14T04:12:43.263Z,1.27
2019-01-14T04:15:14.330Z,1.30
2019-01-14T04:17:43.054Z,1.40
2019-01-14T04:20:13.826Z,1.47
2019-01-14T04:22:42.273Z,1.40
2019-01-14T04:25:10.979Z,1.27
2019-01-14T04:27:39.433Z,1.20
2019-01-14T04:30:17.155Z,1.37
2019-01-14T04:32:45.602Z,1.27
2019-01-14T04:35:14.406Z,1.70
2019-01-14T04:37:42.862Z,1.57
2019-01-14T04:40:13.536Z,1.30
2019-01-14T04:42:42.162Z,1.50
2019-01-14T04:45:12.619Z,1.10
2019-01-14T04:47:41.132Z,1.30
2019-01-14T04:50:15.775Z,1.07
2019-01-14T04:52:47.460Z,1.30
2019-01-14T04:55:15.988Z,1.07
2019-01-14T04:57:44.490Z,1.23
2019-01-14T05:00:18.861Z,2.20
2019-01-14T05:02:47.306Z,1.10
2019-01-14T05:05:16.412Z,1.20
2019-01-14T05:07:44.859Z,0.83
2019-01-14T05:10:16.524Z,0.90
2019-01-14T05:12:44.995Z,0.67
2019-01-14T05:15:13.581Z,0.77
2019-01-14T05:17:42.042Z,0.60
2019-01-14T05:20:22.108Z,0.60
2019-01-14T05:22:50.638Z,0.60
2019-01-14T05:25:19.079Z,0.50
2019-01-14T05:27:47.616Z,0.53
2019-01-14T05:30:20.482Z,0.90
2019-01-14T05:32:48.929Z,0.80
2019-01-14T05:35:17.595Z,0.90
2019-01-14T05:37:46.031Z,0.90
2019-01-14T05:40:22.965Z,0.63
2019-01-14T05:42:51.440Z,0.70
2019-01-14T05:45:19.933Z,0.90
2019-01-14T05:47:49.617Z,0.70
2019-01-14T05:50:18.069Z,0.90
2019-01-14T05:52:46.867Z,0.80
2019-01-14T05:55:16.098Z,0.90
2019-01-14T05:57:44.909Z,0.70
2019-01-14T06:00:17.037Z,0.77
2019-01-14T06:02:48.146Z,0.70
2019-01-14T06:05:18.223Z,1.00
2019-01-14T06:07:53.804Z,0.80
2019-01-14T06:10:26.294Z,1.20
2019-01-14T06:13:00.875Z,1.17
2019-01-14T06:15:31.779Z,1.10
2019-01-14T06:18:03.728Z,1.10
2019-01-14T06:20:36.996Z,1.37
2019-01-14T06:23:08.958Z,1.30
2019-01-14T06:25:45.937Z,1.10
2019-01-14T06:28:15.051Z,1.10
2019-01-14T06:30:49.854Z,1.00
2019-01-14T06:33:21.677Z,1.17
2019-01-14T06:35:56.175Z,1.20
2019-01-14T06:38:27.588Z,1.37
2019-01-14T06:40:59.348Z,1.57
2019-01-14T06:43:32.360Z,1.40
2019-01-14T06:46:05.144Z,1.80
2019-01-14T06:48:44.124Z,1.50
2019-01-14T06:51:16.022Z,1.10
2019-01-14T06:53:49.007Z,1.10
2019-01-14T06:56:27.794Z,1.40
2019-01-14T06:58:57.354Z,1.13
2019-01-14T07:01:28.659Z,1.60
2019-01-14T07:03:58.831Z,1.27
2019-01-14T07:06:33.242Z,1.30
2019-01-14T07:09:08.470Z,1.40
2019-01-14T07:11:39.386Z,1.10
2019-01-14T07:14:09.932Z,1.27
2019-01-14T07:16:42.049Z,1.40
2019-01-14T07:19:15.312Z,1.10
2019-01-14T07:21:48.341Z,1.10
2019-01-14T07:24:22.730Z,1.70
2019-01-14T07:26:53.967Z,1.60
2019-01-14T07:29:26.172Z,1.43
2019-01-14T07:32:00.110Z,1.60
2019-01-14T07:34:32.867Z,1.13
2019-01-14T07:37:04.904Z,1.30
2019-01-14T07:39:43.831Z,1.23
2019-01-14T07:42:15.816Z,1.07
2019-01-14T07:44:54.534Z,1.50
2019-01-14T07:47:27.725Z,1.50
2019-01-14T07:49:58.765Z,0.90
2019-01-14T07:52:43.207Z,1.30
2019-01-14T07:55:09.241Z,0.90
2019-01-14T07:57:39.564Z,1.10
2019-01-14T08:00:18.693Z,1.47
2019-01-14T08:02:56.117Z,1.30
2019-01-14T08:05:42.545Z,1.50
2019-01-14T08:08:18.631Z,1.70
2019-01-14T08:10:49.586Z,1.50
2019-01-14T08:13:26.326Z,1.37
2019-01-14T08:16:01.476Z,6.73
2019-01-14T08:18:32.262Z,1.30
2019-01-14T08:21:02.121Z,1.20
2019-01-14T08:23:40.039Z,1.40
2019-01-14T08:26:10.650Z,1.50
2019-01-14T08:28:45.784Z,1.37
2019-01-14T08:31:25.937Z,1.33
2019-01-14T08:33:59.492Z,1.20
2019-01-14T08:36:31.696Z,1.77
2019-01-14T08:39:02.468Z,1.23
2019-01-14T08:41:33.018Z,1.57
2019-01-14T08:44:08.049Z,1.90
2019-01-14T08:46:41.079Z,1.53
2019-01-14T08:49:15.602Z,1.33
2019-01-14T08:51:49.506Z,1.93
2019-01-14T08:54:25.754Z,1.73
2019-01-14T08:56:55.127Z,1.70
2019-01-14T08:59:25.864Z,3.63
2019-01-14T09:01:57.939Z,3.50
2019-01-14T09:04:32.533Z,2.00
2019-01-14T09:07:03.386Z,1.60
2019-01-14T09:09:34.423Z,1.60
2019-01-14T09:12:04.992Z,1.77
2019-01-14T09:14:38.578Z,1.70
2019-01-14T09:17:11.161Z,1.63
2019-01-14T09:19:42.926Z,1.83
2019-01-14T09:22:15.710Z,3.03
2019-01-14T09:24:46.528Z,2.27
2019-01-14T09:27:17.588Z,2.27
2019-01-14T09:29:51.271Z,2.50
2019-01-14T09:32:22.401Z,2.13
2019-01-14T09:34:58.217Z,2.00
2019-01-14T09:37:31.882Z,2.30
2019-01-14T09:40:03.411Z,2.30
2019-01-14T09:42:33.555Z,2.10
2019-01-14T09:45:07.490Z,2.90
2019-01-14T09:47:47.835Z,1.70
2019-01-14T09:50:19.870Z,1.93
2019-01-14T09:52:52.264Z,1.97
2019-01-14T09:55:29.631Z,1.90
2019-01-14T09:58:01.499Z,1.90
2019-01-14T10:00:31.993Z,2.30
2019-01-14T10:03:05.096Z,1.60
2019-01-14T10:05:39.252Z,1.63
2019-01-14T10:08:11.430Z,1.77
2019-01-14T10:10:43.459Z,2.03
2019-01-14T10:13:17.369Z,3.00
2019-01-14T10:15:49.802Z,3.33
2019-01-14T10:18:22.171Z,3.57
2019-01-14T10:20:59.118Z,2.87
2019-01-14T10:23:36.344Z,2.30
2019-01-14T10:26:11.232Z,1.80
2019-01-14T10:28:43.923Z,1.80
2019-01-14T10:31:19.779Z,1.87
2019-01-14T10:33:52.451Z,1.87
2019-01-14T10:36:28.518Z,1.90
2019-01-14T10:39:03.722Z,1.50
2019-01-14T10:41:35.450Z,1.63
2019-01-14T10:44:08.735Z,1.63
2019-01-14T10:46:43.105Z,1.73
2019-01-14T10:49:14.174Z,1.80
2019-01-14T10:51:48.464Z,1.77
2019-01-14T10:54:17.563Z,2.13
2019-01-14T10:56:50.353Z,1.70
2019-01-14T10:59:24.764Z,1.70
2019-01-14T11:02:01.563Z,1.60
2019-01-14T11:04:35.217Z,1.70
2019-01-14T11:07:14.295Z,1.77
2019-01-14T11:09:47.258Z,2.07
2019-01-14T11:12:20.574Z,1.93
2019-01-14T11:14:51.579Z,1.70
2019-01-14T11:17:23.848Z,2.50
2019-01-14T11:19:56.452Z,1.93
2019-01-14T11:22:34.906Z,2.07
2019-01-14T11:25:00.392Z,1.67
2019-01-14T11:27:31.559Z,1.90
2019-01-14T11:30:05.221Z,2.53
2019-01-14T11:32:36.848Z,1.87
2019-01-14T11:35:09.189Z,2.33
2019-01-14T11:37:38.824Z,2.10
2019-01-14T11:40:22.866Z,1.60
2019-01-14T11:42:52.138Z,1.97
2019-01-14T11:45:26.354Z,2.10
2019-01-14T11:48:01.314Z,1.70
2019-01-14T11:50:35.812Z,1.67
2019-01-14T11:53:09.386Z,2.30
2019-01-14T11:55:50.272Z,2.30
2019-01-14T11:58:21.629Z,2.53
2019-01-14T12:00:55.946Z,2.80
2019-01-14T12:03:29.766Z,2.90
2019-01-14T12:06:16.108Z,2.13
2019-01-14T12:08:52.640Z,2.47
2019-01-14T12:11:19.667Z,1.70
2019-01-14T12:13:51.004Z,1.53
2019-01-14T12:16:21.827Z,1.57
2019-01-14T12:18:54.345Z,2.03
2019-01-14T12:21:26.594Z,2.23
2019-01-14T12:24:00.292Z,2.27
2019-01-14T12:26:36.374Z,2.30
2019-01-14T12:29:09.147Z,1.80
2019-01-14T12:31:39.281Z,1.83
2019-01-14T12:34:08.761Z,2.07
2019-01-14T12:36:40.929Z,1.90
2019-01-14T12:39:19.503Z,2.33
2019-01-14T12:41:51.143Z,1.97
2019-01-14T12:44:25.717Z,1.47
2019-01-14T12:47:04.251Z,1.70
2019-01-14T12:49:36.641Z,1.50
2019-01-14T12:52:09.532Z,2.57
2019-01-14T12:54:45.752Z,2.40
2019-01-14T12:57:19.769Z,2.30
2019-01-14T12:59:50.605Z,3.73
2019-01-14T13:02:22.468Z,2.53
2019-01-14T13:05:02.520Z,2.77
2019-01-14T13:07:33.659Z,1.60
2019-01-14T13:10:04.710Z,1.63
2019-01-14T13:12:37.444Z,1.40
2019-01-14T13:15:11.294Z,1.40
2019-01-14T13:17:41.010Z,1.70
2019-01-14T13:20:17.301Z,1.67
2019-01-14T13:22:49.437Z,1.80
2019-01-14T13:25:19.150Z,2.23
2019-01-14T13:27:50.028Z,3.00
2019-01-14T13:30:27.583Z,2.60
2019-01-14T13:33:02.550Z,2.83
2019-01-14T13:35:36.134Z,2.47
2019-01-14T13:38:10.532Z,2.80
2019-01-14T13:40:43.740Z,1.73
2019-01-14T13:43:13.964Z,2.30
2019-01-14T13:45:44.654Z,1.80
2019-01-14T13:48:18.331Z,1.87
2019-01-14T13:50:50.105Z,1.50
2019-01-14T13:53:23.637Z,1.23
2019-01-14T13:56:00.427Z,1.20
2019-01-14T13:58:30.135Z,1.30
2019-01-14T14:01:02.506Z,1.30
2019-01-14T14:03:32.702Z,1.57
2019-01-14T14:06:03.975Z,1.20
2019-01-14T14:08:40.113Z,1.30
2019-01-14T14:11:16.160Z,1.70
2019-01-14T14:13:49.345Z,1.50
2019-01-14T14:16:21.914Z,1.13
2019-01-14T14:18:56.754Z,1.00
2019-01-14T14:21:29.537Z,1.03
2019-01-14T14:24:01.809Z,1.20
2019-01-14T14:26:32.283Z,1.17
2019-01-14T14:29:05.114Z,1.07
2019-01-14T14:31:38.918Z,1.20
2019-01-14T14:34:11.008Z,1.53
2019-01-14T14:36:42.548Z,1.10
2019-01-14T14:39:11.969Z,1.20
2019-01-14T14:41:42.686Z,1.10
2019-01-14T14:44:16.168Z,1.30
2019-01-14T14:46:47.000Z,1.50
2019-01-14T14:49:17.698Z,1.87
2019-01-14T14:51:52.153Z,1.27
2019-01-14T14:54:22.592Z,1.57
2019-01-14T14:56:54.911Z,1.30
2019-01-14T14:59:28.560Z,1.03
2019-01-14T15:02:04.128Z,1.20
2019-01-14T15:04:36.343Z,1.80
2019-01-14T15:07:08.113Z,1.80
2019-01-14T15:09:42.550Z,1.97
2019-01-14T15:12:17.891Z,1.30
2019-01-14T15:14:54.691Z,1.60
2019-01-14T15:17:24.448Z,2.63
2019-01-14T15:20:09.537Z,2.17
2019-01-14T15:22:43.680Z,2.10
2019-01-14T15:25:19.952Z,1.40
2019-01-14T15:27:52.794Z,1.30
2019-01-14T15:30:27.245Z,1.40
2019-01-14T15:32:57.848Z,1.40
2019-01-14T15:35:27.608Z,1.43
2019-01-14T15:38:02.026Z,1.40
2019-01-14T15:40:34.244Z,1.53
2019-01-14T15:43:07.488Z,1.43
2019-01-14T15:45:42.579Z,2.20
2019-01-14T15:48:15.172Z,1.80
2019-01-14T15:50:49.247Z,1.80
2019-01-14T15:53:28.181Z,1.80
2019-01-14T15:56:00.004Z,1.20
2019-01-14T15:58:31.421Z,1.27
2019-01-14T16:01:02.236Z,1.80
2019-01-14T16:03:39.540Z,1.10
2019-01-14T16:06:13.448Z,1.93
2019-01-14T16:08:47.738Z,1.30
2019-01-14T16:11:23.134Z,1.40
2019-01-14T16:13:59.667Z,1.40
2019-01-14T16:16:33.899Z,1.47
2019-01-14T16:19:05.025Z,1.63
2019-01-14T16:21:43.438Z,1.70
2019-01-14T16:24:16.021Z,1.43
2019-01-14T16:26:46.851Z,1.00
2019-01-14T16:29:19.268Z,1.93
2019-01-14T16:31:55.493Z,1.00
2019-01-14T16:34:26.849Z,1.50
2019-01-14T16:36:57.967Z,1.40
2019-01-14T16:39:33.430Z,1.50
2019-01-14T16:42:08.876Z,1.10
2019-01-14T16:44:39.523Z,1.20
2019-01-14T16:47:12.601Z,1.77
2019-01-14T16:49:46.468Z,1.30
2019-01-14T16:52:21.978Z,1.13
2019-01-14T16:54:51.455Z,1.20
2019-01-14T16:57:27.089Z,1.30
2019-01-14T17:00:02.350Z,1.40
2019-01-14T17:02:38.409Z,1.90
2019-01-14T17:05:13.546Z,1.27
2019-01-14T17:07:47.970Z,1.83
2019-01-14T17:10:25.331Z,2.33
2019-01-14T17:12:53.307Z,2.40
2019-01-14T17:15:22.158Z,4.87
2019-01-14T17:17:50.747Z,2.93
2019-01-14T17:20:20.087Z,4.57
2019-01-14T17:22:48.504Z,2.80
2019-01-14T17:25:17.093Z,2.10
2019-01-14T17:27:45.535Z,1.20
2019-01-14T17:30:17.240Z,2.00
2019-01-14T17:32:45.749Z,1.30
2019-01-14T17:35:15.256Z,1.40
2019-01-14T17:37:43.713Z,1.20
2019-01-14T17:40:14.874Z,1.30
2019-01-14T17:42:43.285Z,1.20
2019-01-14T17:45:11.900Z,1.30
2019-01-14T17:47:40.466Z,1.40
2019-01-14T17:50:11.600Z,1.20
2019-01-14T17:52:40.073Z,2.00
2019-01-14T17:55:09.184Z,1.93
2019-01-14T17:57:37.699Z,1.37
2019-01-14T18:00:09.275Z,1.30
2019-01-14T18:02:37.733Z,1.80
2019-01-14T18:05:07.128Z,1.90
2019-01-14T18:07:35.669Z,1.43
2019-01-14T18:10:07.012Z,1.90
2019-01-14T18:12:35.632Z,2.30
2019-01-14T18:15:06.035Z,2.10
2019-01-14T18:17:34.540Z,2.13
2019-01-14T18:20:04.808Z,1.63
2019-01-14T18:22:33.293Z,2.20
2019-01-14T18:25:01.773Z,2.57
2019-01-14T18:27:30.337Z,2.30
2019-01-14T18:29:58.776Z,1.63
2019-01-14T18:32:27.231Z,2.30
2019-01-14T18:34:55.751Z,2.63
2019-01-14T18:37:24.219Z,2.03
2019-01-14T18:39:52.703Z,2.83
2019-01-14T18:42:21.138Z,3.20
2019-01-14T18:44:49.589Z,1.90
2019-01-14T18:47:18.024Z,3.10
2019-01-14T18:49:46.517Z,2.53
2019-01-14T18:52:15.044Z,2.53
2019-01-14T18:54:43.502Z,2.70
2019-01-14T18:57:11.955Z,2.10
2019-01-14T18:59:40.394Z,2.13
2019-01-14T19:02:09.166Z,2.10
2019-01-14T19:04:37.784Z,1.50
2019-01-14T19:07:06.308Z,1.97
2019-01-14T19:09:34.778Z,2.23
2019-01-14T19:12:03.352Z,2.63
2019-01-14T19:14:31.878Z,2.30
2019-01-14T19:17:00.424Z,2.40
2019-01-14T19:19:28.862Z,2.63
2019-01-14T19:21:57.479Z,2.10
2019-01-14T19:24:26.311Z,2.40
2019-01-14T19:26:54.852Z,3.07
2019-01-14T19:29:23.588Z,3.97
2019-01-14T19:31:52.052Z,3.63
2019-01-14T19:34:20.478Z,4.80
2019-01-14T19:36:49.098Z,4.00
2019-01-14T19:39:17.561Z,3.20
2019-01-14T19:41:46.021Z,2.30
2019-01-14T19:44:14.591Z,3.20
2019-01-14T19:46:43.173Z,3.10
2019-01-14T19:49:11.686Z,2.73
2019-01-14T19:51:40.249Z,2.57
2019-01-14T19:54:08.854Z,3.30
2019-01-14T19:56:37.282Z,2.50
2019-01-14T19:59:05.879Z,2.50
2019-01-14T20:01:34.421Z,2.90
2019-01-14T20:04:02.965Z,3.43
2019-01-14T20:06:31.419Z,2.17
2019-01-14T20:08:59.966Z,2.30
2019-01-14T20:11:28.405Z,2.00
2019-01-14T20:13:57.120Z,2.10
2019-01-14T20:16:25.567Z,1.80
2019-01-14T20:18:54.273Z,1.97
2019-01-14T20:21:22.798Z,1.70
2019-01-14T20:23:52.396Z,1.70
2019-01-14T20:26:21.027Z,2.50
2019-01-14T20:28:49.486Z,1.37
2019-01-14T20:31:17.936Z,1.80
2019-01-14T20:33:46.436Z,2.07
2019-01-14T20:36:14.946Z,2.20
2019-01-14T20:38:43.477Z,2.20
2019-01-14T20:41:16.463Z,2.53
2019-01-14T20:43:42.141Z,2.40
2019-01-14T20:46:10.663Z,2.03
2019-01-14T20:48:40.505Z,2.83
2019-01-14T20:51:09.731Z,2.13
2019-01-14T20:53:38.310Z,2.57
2019-01-14T20:56:06.768Z,2.23
2019-01-14T20:58:35.362Z,1.97
2019-01-14T21:01:04.057Z,2.17
2019-01-14T21:03:32.588Z,2.50
2019-01-14T21:06:01.050Z,2.87
2019-01-14T21:08:29.491Z,2.63
2019-01-14T21:10:57.993Z,2.10
2019-01-14T21:13:26.457Z,2.20
2019-01-14T21:15:55.059Z,2.00
2019-01-14T21:18:23.508Z,1.90
2019-01-14T21:20:52.010Z,2.50
2019-01-14T21:23:20.481Z,2.10
2019-01-14T21:25:49.034Z,2.33
2019-01-14T21:28:17.556Z,2.27
2019-01-14T21:30:46.002Z,1.70
2019-01-14T21:33:14.502Z,2.10
2019-01-14T21:35:42.981Z,2.40
2019-01-14T21:38:11.500Z,2.03
2019-01-14T21:40:39.945Z,1.97
2019-01-14T21:43:08.412Z,2.87
2019-01-14T21:45:37.038Z,3.10
2019-01-14T21:48:05.586Z,3.00
2019-01-14T21:50:34.046Z,2.93
2019-01-14T21:53:02.515Z,3.00
2019-01-14T21:55:31.052Z,2.10
2019-01-14T21:57:59.500Z,1.87
2019-01-14T22:00:27.977Z,2.23
2019-01-14T22:02:56.413Z,1.77
2019-01-14T22:05:24.892Z,1.93
2019-01-14T22:07:53.523Z,2.30
2019-01-14T22:10:24.298Z,2.00
2019-01-14T22:12:52.829Z,1.77
2019-01-14T22:15:21.508Z,1.97
2019-01-14T22:17:49.978Z,2.03
2019-01-14T22:20:23.387Z,2.10
2019-01-14T22:22:51.928Z,1.93
2019-01-14T22:25:20.388Z,1.90
2019-01-14T22:27:48.908Z,2.53
2019-01-14T22:30:20.287Z,2.00
2019-01-14T22:32:48.735Z,1.87
2019-01-14T22:35:17.248Z,1.67
2019-01-14T22:37:45.994Z,1.93
2019-01-14T22:40:15.355Z,2.63
2019-01-14T22:42:43.852Z,2.23
2019-01-14T22:45:13.126Z,1.47
2019-01-14T22:47:42.491Z,2.23
2019-01-14T22:50:15.986Z,2.30
2019-01-14T22:52:44.464Z,2.00
2019-01-14T22:55:13.094Z,2.27
2019-01-14T22:57:41.574Z,2.30
2019-01-14T23:00:52.422Z,2.30
2019-01-14T23:03:21.053Z,2.10
2019-01-14T23:05:49.502Z,1.97
2019-01-14T23:08:18.034Z,2.20
2019-01-14T23:10:47.663Z,1.87
2019-01-14T23:13:16.431Z,2.20
2019-01-14T23:15:44.895Z,1.93
2019-01-14T23:18:13.367Z,2.27
2019-01-14T23:20:41.949Z,2.40
2019-01-14T23:23:10.434Z,2.47
2019-01-14T23:25:38.955Z,2.00
2019-01-14T23:28:07.424Z,1.90
2019-01-14T23:30:35.890Z,2.40
2019-01-14T23:33:04.483Z,2.90
2019-01-14T23:35:35.846Z,2.13
2019-01-14T23:38:04.475Z,2.10
2019-01-14T23:40:32.920Z,2.17
2019-01-14T23:43:01.362Z,2.50
2019-01-14T23:45:29.828Z,2.20
2019-01-14T23:47:58.378Z,2.13
2019-01-14T23:50:26.842Z,2.43
2019-01-14T23:52:55.290Z,2.63
2019-01-14T23:55:23.727Z,2.70
2019-01-14T23:57:52.171Z,2.70
